Leeuwarden Air Base

EHLW · Friesland, Nederland

METAR historie EHLW · Leeuwarden Air Base

Hieronder zie je METAR's van de afgelopen dagen. Kies een jaar om door oudere METAR's te bladeren, vanaf het jaar 2007.

20 juli 2024

Tijd Code Weer Temp. Zicht Plafond Wind METAR/SPECI
03:25
V
21 °C 10 km+ 18.000 ft 130° 130° 7 kt METAR EHLW 200125Z AUTO 13007KT 080V150 9999 BKN180 21/15 Q1014 BLU
02:55
V
21 °C 10 km+ - 120° 120° 6 kt METAR EHLW 200055Z AUTO 12006KT 070V160 9999 SCT180 21/15 Q1014 BLU
02:25
V
21 °C 10 km+ - 120° 120° 7 kt METAR EHLW 200025Z AUTO 12007KT 060V150 9999 NCD 21/15 Q1014 BLU RMK CB INFO NOT AVBL
01:55
V
22 °C 10 km+ 15.000 ft 130° 130° 7 kt METAR EHLW 192355Z AUTO 13007KT 080V150 9999 OVC150 22/15 Q1015 BLU
01:25
V
22 °C 10 km+ 15.000 ft 120° 120° 7 kt METAR EHLW 192325Z AUTO 12007KT 070V150 9999 OVC150 22/16 Q1015 BLU
00:55
V
22 °C 10 km+ 15.000 ft 130° 130° 7 kt METAR EHLW 192255Z AUTO 13007KT 080V150 9999 OVC150 22/16 Q1015 BLU
00:25
V
22 °C 10 km+ - 130° 130° 7 kt METAR EHLW 192225Z AUTO 13007KT 080V150 9999 NCD 22/16 Q1015 BLU

19 juli 2024

Tijd Code Weer Temp. Zicht Plafond Wind METAR/SPECI
23:55
V
22 °C 10 km+ - 120° 120° 6 kt METAR EHLW 192155Z AUTO 12006KT 070V150 9999 NCD 22/17 Q1015 BLU
23:25
V
23 °C 10 km+ - 110° 110° 7 kt METAR EHLW 192125Z AUTO 11007KT 050V160 9999 NCD 23/17 Q1015 BLU
22:55
V
23 °C 10 km+ - 110° 110° 7 kt METAR EHLW 192055Z AUTO 11007KT 080V150 9999 NCD 23/17 Q1016 BLU
22:25
V
23 °C 10 km+ - 110° 110° 6 kt METAR EHLW 192025Z AUTO 11006KT 050V170 9999 NCD 23/17 Q1016 BLU
21:55
V
24 °C 10 km+ - 110° 110° 6 kt METAR EHLW 191955Z AUTO 11006KT 060V170 9999 NCD 24/17 Q1016 BLU
21:25
V
25 °C 10 km+ - 130° 130° 4 kt METAR EHLW 191925Z AUTO 13004KT 9999 NCD 25/17 Q1016 BLU
20:55
V
26 °C 10 km+ - 140° 140° 6 kt METAR EHLW 191855Z AUTO 14006KT 110V170 9999 NCD 26/17 Q1016 BLU
20:25
V
26 °C 10 km+ 18.000 ft 150° 150° 6 kt METAR EHLW 191825Z AUTO 15006KT 9999 OVC180 26/16 Q1016 BLU
19:55
V
27 °C 10 km+ - 160° 160° 8 kt METAR EHLW 191755Z AUTO 16008KT 130V200 9999 SCT180 27/15 Q1016 BLU
19:25
V
27 °C 10 km+ 16.000 ft 150° 150° 8 kt METAR EHLW 191725Z AUTO 15008KT 090V190 9999 OVC160 27/16 Q1016 BLU
18:55
V
27 °C 10 km+ 12.000 ft 130° 130° 8 kt METAR EHLW 191655Z AUTO 13008KT 110V200 9999 BKN120 BKN180 27/15 Q1016 BLU
18:25
V
28 °C 10 km+ 13.000 ft 130° 130° 8 kt METAR EHLW 191625Z AUTO 13008KT 100V200 9999 BKN130 BKN200 28/16 Q1017 BLU
17:55
V
28 °C 10 km+ - 130° 130° 7 kt METAR EHLW 191555Z AUTO 13007KT 070V200 9999 NCD 28/15 Q1017 BLU
17:25
V
28 °C 10 km+ - 170° 170° 7 kt METAR EHLW 191525Z AUTO 17007KT 100V190 9999 NCD 28/15 Q1017 BLU
16:55
V
28 °C 10 km+ 16.000 ft 150° 150° 6 kt METAR EHLW 191455Z AUTO 15006KT 100V200 9999 BKN160 28/16 Q1017 BLU
16:25
V
28 °C 10 km+ - 160° 160° 7 kt METAR EHLW 191425Z AUTO 16007KT 110V220 9999 FEW130 28/17 Q1018 BLU
15:55
V
28 °C 10 km+ 11.000 ft 150° 150° 8 kt METAR EHLW 191355Z AUTO 15008KT 100V220 9999 OVC110 28/14 Q1018 BLU
15:25
V
28 °C 10 km+ 13.000 ft 170° 170° 7 kt METAR EHLW 191325Z AUTO 17007KT 100V210 9999 OVC130 28/15 Q1018 BLU
15:00
V
28 °C 10 km+ 5.100 ft 140° 140° 7 kt METAR EHLW 191300Z AUTO 14007KT 060V210 9999 FEW047 OVC051 28/16 Q1018 BLU
14:55
V
27 °C 10 km+ 4.600 ft 130° 130° 8 kt METAR EHLW 191255Z AUTO 13008KT 070V200 9999 BKN046 27/17 Q1018 BLU NOSIG
14:25
V
28 °C 10 km+ 24.000 ft 160° 160° 8 kt METAR EHLW 191225Z AUTO 16008KT 090V210 9999 BKN240 28/15 Q1019 BLU NOSIG
13:55
V
28 °C 10 km+ - 120° 120° 9 kt METAR EHLW 191155Z AUTO 12009KT 110V200 9999 NCD 28/15 Q1019 BLU NOSIG
13:25
V
28 °C 10 km+ - 130° 130° 8 kt METAR EHLW 191125Z AUTO 13008KT 070V190 9999 NCD 28/16 Q1019 BLU NOSIG
12:55
V
27 °C 10 km+ - 130° 130° 8 kt METAR EHLW 191055Z AUTO 13008KT 9999 NCD 27/17 Q1019 BLU NOSIG
12:25
V
26 °C 10 km+ - 140° 140° 7 kt METAR EHLW 191025Z AUTO 14007KT 040V190 9999 NCD 26/17 Q1019 BLU NOSIG
11:55
V
26 °C 10 km+ - 120° 120° 7 kt METAR EHLW 190955Z AUTO 12007KT 9999 NCD 26/16 Q1019 BLU NOSIG
11:25
V
26 °C 10 km+ - 120° 120° 5 kt METAR EHLW 190925Z AUTO 12005KT 9999 NCD 26/17 Q1019 BLU NOSIG
10:55
V
25 °C 10 km+ - 110° 110° 5 kt METAR EHLW 190855Z AUTO 11005KT 9999 FEW290 25/17 Q1020 BLU NOSIG
10:25
V
24 °C 10 km+ - 120° 120° 4 kt METAR EHLW 190825Z AUTO 12004KT 070V180 9999 NCD 24/17 Q1020 BLU NOSIG
09:55
V
23 °C 10 km+ - 110° 110° 5 kt METAR EHLW 190755Z AUTO 11005KT 030V180 9999 NCD 23/17 Q1020 BLU NOSIG
09:25
V
22 °C 10 km+ 5.500 ft 100° 100° 4 kt METAR EHLW 190725Z AUTO 10004KT 040V180 9999 OVC055 22/17 Q1020 BLU NOSIG
08:55
V
21 °C 10 km+ - 110° 110° 5 kt METAR EHLW 190655Z AUTO 11005KT 9999 NCD 21/17 Q1020 BLU NOSIG
08:25
V
20 °C 10 km+ - 100° 100° 4 kt METAR EHLW 190625Z AUTO 10004KT 9999 NCD 20/17 Q1020 BLU NOSIG
08:12
V
19 °C 10 km+ - 100° 100° 5 kt METAR EHLW 190612Z AUTO 10005KT 9999 NCD 19/17 Q1020 BLU NOSIG
07:56
V
19 °C 10 km+ - 090° 090° 3 kt METAR EHLW 190556Z AUTO 09003KT 9999 NCD 19/16 Q1020 BLU NOSIG
07:55
M
19 °C 6 km - 080° 080° 3 kt METAR EHLW 190555Z AUTO 08003KT 6000 BR NCD 19/17 Q1020 WHT NOSIG
07:25
M
18 °C 5 km 29.000 ft 070° 070° 4 kt METAR EHLW 190525Z AUTO 07004KT 5000 BR SCT140 OVC290 18/16 Q1020 WHT NOSIG
07:12
M
18 °C 5 km 13.000 ft 060° 060° 4 kt METAR EHLW 190512Z AUTO 06004KT 5000 BR BKN130 OVC300 18/16 Q1020 WHT
06:59
M
17 °C 5 km 13.000 ft 070° 070° 4 kt METAR EHLW 190459Z AUTO 07004KT 5000 BR OVC130 17/16 Q1020 WHT
06:55
I
17 °C 3,7 km 14.000 ft 070° 070° 4 kt METAR EHLW 190455Z AUTO 07004KT 3700 BR BKN140 17/16 Q1020 GRN
06:26
I
16 °C 3,6 km - 080° 080° 5 kt METAR EHLW 190426Z AUTO 08005KT 350V140 3600 BR NCD 16/15 Q1020 YLO
06:25
I
16 °C 3,7 km - 070° 070° 5 kt METAR EHLW 190425Z AUTO 07005KT 360V140 3700 BR NCD 16/15 Q1021 GRN
06:03
I
16 °C 3,4 km - 070° 070° 5 kt METAR EHLW 190403Z AUTO 07005KT 330V140 3400 BR NCD 16/15 Q1021 YLO
05:55
I
16 °C 4,6 km - 070° 070° 4 kt METAR EHLW 190355Z AUTO 07004KT 4600 BR NCD 16/16 Q1021 GRN
05:25
I
16 °C 3 km - 070° 070° 4 kt METAR EHLW 190325Z AUTO 07004KT 3000 BR NCD 16/15 Q1021 YLO
05:07
I
16 °C 4,2 km - 060° 060° 4 kt METAR EHLW 190307Z AUTO 06004KT 4200 BR FEW015CB 16/15 Q1021 GRN
04:55
M
16 °C 5 km - 060° 060° 2 kt METAR EHLW 190255Z AUTO 06002KT 5000 BR FEW015CB 16/16 Q1021 WHT
04:40
M
16 °C 5 km - 070° 070° 3 kt METAR EHLW 190240Z AUTO 07003KT 5000 BR FEW015CB 16/16 Q1021 WHT
04:25
I
16 °C 4 km - 080° 080° 3 kt METAR EHLW 190225Z AUTO 08003KT 360V170 4000 BR FEW015CB 16/15 Q1021 GRN
04:14
I
16 °C 4,1 km - 080° 080° 3 kt METAR EHLW 190214Z AUTO 08003KT 4100 BR FEW015CB 16/15 Q1021 GRN
04:04
M
16 °C 5 km - 090° 090° 3 kt METAR EHLW 190204Z AUTO 09003KT 5000 BR FEW015CB 16/15 Q1021 WHT
04:00
I
16 °C 4,8 km - 080° 080° 3 kt METAR EHLW 190200Z AUTO 08003KT 4800 BR FEW015CB 16/15 Q1021 GRN
03:57
M
16 °C 5 km - 070° 070° 3 kt METAR EHLW 190157Z AUTO 07003KT 5000 BR FEW015CB 16/15 Q1021 WHT
03:43
I
16 °C 4,7 km - 070° 070° 3 kt METAR EHLW 190143Z AUTO 07003KT 4700 BR FEW015CB 16/16 Q1021 GRN
03:39
M
16 °C 5 km - 070° 070° 3 kt METAR EHLW 190139Z AUTO 07003KT 5000 BR FEW015CB 16/15 Q1021 WHT
03:31
I
16 °C 4,8 km - 070° 070° 3 kt METAR EHLW 190131Z AUTO 07003KT 4800 BR NCD 16/15 Q1021 GRN
03:25
M
16 °C 6 km - 070° 070° 3 kt METAR EHLW 190125Z AUTO 07003KT 030V180 6000 BR NCD 16/15 Q1021 WHT
02:55
M
16 °C 7 km - 060° 060° 3 kt METAR EHLW 190055Z AUTO 06003KT 7000 BR NCD 16/15 Q1021 WHT
02:25
V
16 °C 10 km+ - 080° 080° 3 kt METAR EHLW 190025Z AUTO 08003KT 9999 NCD 16/15 Q1021 BLU RMK CB INFO NOT AVBL
01:55
V
16 °C 10 km+ - Var Var 2 kt METAR EHLW 182355Z AUTO VRB02KT 9999 NCD 16/15 Q1022 BLU
01:25
V
15 °C 9 km - 070° 070° 3 kt METAR EHLW 182325Z AUTO 07003KT 9000 BR NCD 15/14 Q1022 BLU
00:55
V
15 °C 9 km - 060° 060° 3 kt METAR EHLW 182255Z AUTO 06003KT 9000 BR NCD 15/15 Q1022 BLU
00:25
V
16 °C 10 km+ - 060° 060° 3 kt METAR EHLW 182225Z AUTO 06003KT 360V150 9999 NCD 16/15 Q1022 BLU

18 juli 2024

Tijd Code Weer Temp. Zicht Plafond Wind METAR/SPECI
23:55
V
16 °C 10 km+ - 060° 060° 3 kt METAR EHLW 182155Z AUTO 06003KT 9999 NCD 16/15 Q1022 BLU
23:25
V
17 °C 10 km+ - 070° 070° 4 kt METAR EHLW 182125Z AUTO 07004KT 010V180 9999 NCD 17/15 Q1022 BLU
22:55
V
17 °C 10 km+ - 070° 070° 5 kt METAR EHLW 182055Z AUTO 07005KT 340V140 9999 NCD 17/16 Q1022 BLU
22:25
V
17 °C 10 km+ - 060° 060° 5 kt METAR EHLW 182025Z AUTO 06005KT 350V150 9999 NCD 17/16 Q1022 BLU
21:55
V
18 °C 10 km+ - 060° 060° 5 kt METAR EHLW 181955Z AUTO 06005KT 340V140 9999 NCD 18/16 Q1022 BLU
21:25
V
19 °C 10 km+ - 060° 060° 6 kt METAR EHLW 181925Z AUTO 06006KT 350V120 9999 NCD 19/17 Q1022 BLU
20:55
V
20 °C 10 km+ - 070° 070° 7 kt METAR EHLW 181855Z AUTO 07007KT 350V150 9999 NCD 20/17 Q1022 BLU
20:25
V
21 °C 10 km+ - 050° 050° 6 kt METAR EHLW 181825Z AUTO 05006KT 350V090 9999 NCD 21/17 Q1022 BLU
19:55
V
21 °C 10 km+ - 060° 060° 7 kt METAR EHLW 181755Z AUTO 06007KT 350V100 9999 NCD 21/17 Q1022 BLU
19:25
V
21 °C 10 km+ - 050° 050° 7 kt METAR EHLW 181725Z AUTO 05007KT 360V090 9999 NCD 21/17 Q1022 BLU
18:55
V
22 °C 10 km+ - 030° 030° 8 kt METAR EHLW 181655Z AUTO 03008KT 360V090 9999 NCD 22/17 Q1022 BLU
18:25
V
23 °C 10 km+ - 360° 360° 7 kt METAR EHLW 181625Z AUTO 36007KT 340V050 9999 NCD 23/17 Q1022 BLU
17:55
V
24 °C 10 km+ - 310° 310° 6 kt METAR EHLW 181555Z AUTO 31006KT 290V040 9999 FEW041 24/16 Q1022 BLU
17:25
V
24 °C 10 km+ - 280° 280° 3 kt METAR EHLW 181525Z AUTO 28003KT 9999 FEW042 24/14 Q1022 BLU
16:55
V
24 °C 10 km+ - Var Var 2 kt METAR EHLW 181455Z AUTO VRB02KT 9999 NCD 24/14 Q1022 BLU
16:25
V
24 °C 10 km+ - Var Var 2 kt METAR EHLW 181425Z AUTO VRB02KT 9999 FEW041 24/15 Q1022 BLU
15:55
V
23 °C 10 km+ - 220° 220° 3 kt METAR EHLW 181355Z AUTO 22003KT 9999 SCT036 23/14 Q1022 BLU
15:26
V
23 °C 10 km+ 3.500 ft 020° 020° 3 kt METAR EHLW 181326Z AUTO 02003KT 160V330 9999 BKN035 23/15 Q1022 BLU
15:25
V
23 °C 10 km+ 3.400 ft 360° 360° 3 kt METAR EHLW 181325Z AUTO 36003KT 9999 BKN034 23/15 Q1022 BLU TEMPO SCT016
14:55
V
23 °C 10 km+ - 230° 230° 4 kt METAR EHLW 181255Z AUTO 23004KT 9999 NCD 23/14 Q1022 BLU TEMPO SCT016
14:25
V
23 °C 10 km+ - 250° 250° 3 kt METAR EHLW 181225Z AUTO 25003KT 190V320 9999 FEW360 23/15 Q1023 BLU TEMPO SCT016
13:55
V
22 °C 10 km+ 34.000 ft 200° 200° 3 kt METAR EHLW 181155Z AUTO 20003KT 9999 BKN340 22/14 Q1023 BLU TEMPO SCT016
13:25
V
22 °C 10 km+ 30.000 ft 200° 200° 4 kt METAR EHLW 181125Z AUTO 20004KT 110V260 9999 OVC300 22/14 Q1023 BLU TEMPO SCT016
12:55
V
21 °C 10 km+ 25.000 ft 180° 180° 3 kt METAR EHLW 181055Z AUTO 18003KT 080V240 9999 OVC250 21/15 Q1023 BLU TEMPO SCT016
12:25
V
20 °C 10 km+ 23.000 ft 230° 230° 3 kt METAR EHLW 181025Z AUTO 23003KT 9999 OVC230 20/14 Q1023 BLU TEMPO SCT016
11:55
V
20 °C 10 km+ 23.000 ft Var Var 2 kt METAR EHLW 180955Z AUTO VRB02KT 9999 OVC230 20/14 Q1023 BLU TEMPO SCT016
11:25
V
20 °C 10 km+ 25.000 ft 240° 240° 3 kt METAR EHLW 180925Z AUTO 24003KT 9999 OVC250 20/14 Q1023 BLU TEMPO SCT016
10:58
V
19 °C 10 km+ 25.000 ft 300° 300° 3 kt METAR EHLW 180858Z AUTO 30003KT 230V010 9999 SCT017 BKN250 19/15 Q1023 BLU TEMPO SCT016
10:55
M
19 °C 10 km+ 1.700 ft 300° 300° 3 kt METAR EHLW 180855Z AUTO 30003KT 9999 BKN017 BKN220 19/15 Q1023 WHT TEMPO SCT016
10:32
V
19 °C 10 km+ 20.000 ft 250° 250° 3 kt METAR EHLW 180832Z AUTO 25003KT 200V340 9999 SCT016 OVC200 19/15 Q1023 BLU TEMPO SCT016
10:26
M
19 °C 10 km+ 1.600 ft Var Var 2 kt METAR EHLW 180826Z AUTO VRB02KT 9999 BKN016 OVC200 19/14 Q1023 WHT TEMPO SCT016
10:25
V
19 °C 10 km+ 20.000 ft 190° 190° 2 kt METAR EHLW 180825Z AUTO 19002KT 9999 SCT016 OVC200 19/14 Q1023 BLU TEMPO SCT016
10:20
V
19 °C 10 km+ 20.000 ft 200° 200° 2 kt METAR EHLW 180820Z AUTO 20002KT 9999 SCT016 OVC200 19/14 Q1023 BLU TEMPO SCT016
09:55
V
19 °C 10 km+ 20.000 ft Var Var 2 kt METAR EHLW 180755Z AUTO VRB02KT 9999 OVC200 19/15 Q1023 BLU NOSIG
09:25
V
18 °C 10 km+ 21.000 ft 200° 200° 3 kt METAR EHLW 180725Z AUTO 20003KT 170V250 9999 OVC210 18/15 Q1023 BLU NOSIG
08:55
V
18 °C 10 km+ 21.000 ft 200° 200° 3 kt METAR EHLW 180655Z AUTO 20003KT 100V230 9999 OVC210 18/15 Q1023 BLU NOSIG
08:25
V
17 °C 10 km+ 23.000 ft 180° 180° 4 kt METAR EHLW 180625Z AUTO 18004KT 130V230 9999 BKN230 BKN380 17/14 Q1023 BLU NOSIG
07:55
V
16 °C 10 km+ 22.000 ft 150° 150° 3 kt METAR EHLW 180555Z AUTO 15003KT 9999 BKN220 OVC350 16/14 Q1022 BLU NOSIG
07:39
V
16 °C 10 km+ 22.000 ft 150° 150° 4 kt METAR EHLW 180539Z AUTO 15004KT 9999 OVC220 16/14 Q1022 BLU NOSIG
07:25
V
16 °C 10 km+ 23.000 ft 160° 160° 3 kt METAR EHLW 180525Z AUTO 16003KT 110V170 9999 OVC230 16/14 Q1022 BLU
07:06
V
15 °C 9 km 24.000 ft Var Var 2 kt METAR EHLW 180506Z AUTO VRB02KT 9000 BR OVC240 15/14 Q1022 BLU
06:55
V
14 °C 8 km 37.000 ft 160° 160° 3 kt METAR EHLW 180455Z AUTO 16003KT 8000 BR BKN370 14/14 Q1023 BLU
06:44
V
14 °C 8 km 34.000 ft 150° 150° 2 kt METAR EHLW 180444Z AUTO 15002KT 8000 BR BKN340 14/13 Q1022 BLU
06:36
M
13 °C 6 km 34.000 ft 140° 140° 1 kt METAR EHLW 180436Z AUTO 14001KT 6000 BR OVC340 13/13 Q1022 WHT
06:25
V
14 °C 9 km 35.000 ft 360° 360° 0 kt METAR EHLW 180425Z AUTO 00000KT 9000 BR OVC350 14/13 Q1022 BLU
05:55
V
14 °C 10 km+ 22.000 ft 360° 360° 0 kt METAR EHLW 180355Z AUTO 00000KT 9999 OVC220 14/13 Q1022 BLU
05:29
V
15 °C 10 km+ 22.000 ft 140° 140° 1 kt METAR EHLW 180329Z AUTO 14001KT 9999 FEW019 OVC220 15/13 Q1022 BLU
05:25
M
15 °C 10 km+ 1.900 ft 140° 140° 1 kt METAR EHLW 180325Z AUTO 14001KT 9999 BKN019 OVC220 15/14 Q1022 WHT
04:55
M
15 °C 10 km+ 1.800 ft 130° 130° 1 kt METAR EHLW 180255Z AUTO 13001KT 9999 -RA OVC018 15/14 Q1023 WHT
04:25
M
15 °C 10 km+ 1.900 ft 160° 160° 1 kt METAR EHLW 180225Z AUTO 16001KT 9999 OVC019 15/14 Q1022 WHT
03:55
M
16 °C 10 km+ 1.600 ft Var Var 2 kt METAR EHLW 180155Z AUTO VRB02KT 9999 OVC016 16/14 Q1022 WHT
03:25
M
16 °C 10 km+ 1.500 ft 280° 280° 2 kt METAR EHLW 180125Z AUTO 28002KT 9999 OVC015 16/14 Q1022 WHT
02:55
M
16 °C 10 km+ 1.500 ft Var Var 2 kt METAR EHLW 180055Z AUTO VRB02KT 9999 OVC015 16/14 Q1022 WHT
02:25
M
16 °C 10 km+ 1.600 ft 230° 230° 3 kt METAR EHLW 180025Z AUTO 23003KT 190V260 9999 OVC016 16/14 Q1022 WHT
01:55
M
16 °C 10 km+ 1.600 ft Var Var 2 kt METAR EHLW 172355Z AUTO VRB02KT 9999 OVC016 16/14 Q1022 WHT
01:25
M
16 °C 10 km+ 1.600 ft 240° 240° 2 kt METAR EHLW 172325Z AUTO 24002KT 9999 OVC016 16/14 Q1022 WHT
01:12
M
16 °C 10 km+ 1.700 ft Var Var 2 kt METAR EHLW 172312Z AUTO VRB02KT 9999 SCT014 BKN017 16/13 Q1022 WHT
01:00
M
16 °C 10 km+ 1.400 ft Var Var 2 kt METAR EHLW 172300Z AUTO VRB02KT 9999 OVC014 16/14 Q1022 GRN
00:57
M
16 °C 10 km+ 1.500 ft Var Var 1 kt METAR EHLW 172257Z AUTO VRB01KT 9999 OVC015 16/14 Q1022 WHT
00:55
M
16 °C 10 km+ 1.500 ft Var Var 2 kt METAR EHLW 172255Z AUTO VRB02KT 9999 OVC015 16/14 Q1022 WHT
00:25
M
17 °C 10 km+ 1.500 ft Var Var 2 kt METAR EHLW 172225Z AUTO VRB02KT 9999 OVC015 17/14 Q1022 WHT

17 juli 2024

Tijd Code Weer Temp. Zicht Plafond Wind METAR/SPECI
23:55
M
17 °C 10 km+ 1.600 ft Var Var 1 kt METAR EHLW 172155Z AUTO VRB01KT 9999 OVC016 17/14 Q1022 WHT
23:25
M
17 °C 10 km+ 1.500 ft 260° 260° 3 kt METAR EHLW 172125Z AUTO 26003KT 210V360 9999 OVC015 17/14 Q1022 WHT
22:55
M
17 °C 10 km+ 1.600 ft 250° 250° 3 kt METAR EHLW 172055Z AUTO 25003KT 180V270 9999 +DZ OVC016 17/14 Q1022 WHT
22:34
M
16 °C 10 km+ 1.600 ft Var Var 2 kt METAR EHLW 172034Z AUTO VRB02KT 9999 -RA OVC016 16/14 Q1022 WHT
22:25
M
16 °C 10 km+ 1.600 ft 210° 210° 3 kt METAR EHLW 172025Z AUTO 21003KT 140V230 9999 -SHRA OVC016 16/14 Q1022 RERA WHT
22:16
M
16 °C 10 km+ 1.600 ft 210° 210° 4 kt METAR EHLW 172016Z AUTO 21004KT 9999 RA OVC016 16/14 Q1022 WHT
21:55
M
16 °C 10 km+ 1.700 ft 240° 240° 4 kt METAR EHLW 171955Z AUTO 24004KT 9999 OVC017 16/14 Q1022 WHT
21:44
M
16 °C 10 km+ 1.800 ft 250° 250° 3 kt METAR EHLW 171944Z AUTO 25003KT 9999 BKN018 16/14 Q1022 WHT
21:40
V
16 °C 10 km+ - 240° 240° 4 kt METAR EHLW 171940Z AUTO 24004KT 9999 SCT017 16/14 Q1022 BLU
21:25
M
17 °C 10 km+ 1.700 ft 230° 230° 4 kt METAR EHLW 171925Z AUTO 23004KT 9999 OVC017 17/14 Q1022 WHT
20:55
M
17 °C 10 km+ 1.600 ft 240° 240° 3 kt METAR EHLW 171855Z AUTO 24003KT 250V310 9999 BKN016 17/14 Q1022 WHT
20:25
M
18 °C 10 km+ 1.600 ft 280° 280° 5 kt METAR EHLW 171825Z AUTO 28005KT 220V290 9999 OVC016 18/14 Q1022 WHT
19:55
M
18 °C 10 km+ 1.600 ft 280° 280° 6 kt METAR EHLW 171755Z AUTO 28006KT 240V310 9999 OVC016 18/14 Q1022 WHT
19:25
M
18 °C 10 km+ 1.900 ft 290° 290° 7 kt METAR EHLW 171725Z AUTO 29007KT 240V310 9999 OVC019 18/15 Q1022 WHT
18:55
M
18 °C 10 km+ 2.000 ft 280° 280° 7 kt METAR EHLW 171655Z AUTO 28007KT 230V300 9999 FEW016 BKN020 BKN023 18/15 Q1021 WHT
18:25
M
19 °C 10 km+ 2.200 ft 280° 280° 9 kt METAR EHLW 171625Z AUTO 28009KT 240V310 9999 FEW018 OVC022 19/15 Q1021 WHT
17:55
M
19 °C 10 km+ 2.200 ft 280° 280° 9 kt METAR EHLW 171555Z AUTO 28009KT 240V300 9999 FEW018 OVC022 19/15 Q1021 WHT
17:25
M
20 °C 10 km+ 1.600 ft 270° 270° 9 kt METAR EHLW 171525Z AUTO 27009KT 230V310 9999 BKN016 BKN023 20/16 Q1021 WHT
16:55
V
19 °C 10 km+ - 270° 270° 11 kt METAR EHLW 171455Z AUTO 27011KT 230V310 9999 FEW018 SCT022 19/15 Q1021 BLU
16:25
M
20 °C 10 km+ 1.700 ft 280° 280° 11 kt METAR EHLW 171425Z AUTO 28011KT 230V310 9999 BKN017 BKN022 20/16 Q1021 WHT
15:55
M
19 °C 10 km+ 1.600 ft 280° 280° 12 kt METAR EHLW 171355Z AUTO 28012KT 230V310 9999 BKN016 OVC024 19/15 Q1020 WHT
15:39
M
19 °C 10 km+ 2.100 ft 270° 270° 11 kt METAR EHLW 171339Z AUTO 27011KT 230V300 9999 FEW017 BKN021 BKN025 19/15 Q1020 WHT
15:25
M
19 °C 10 km+ 2.100 ft 270° 270° 10 kt METAR EHLW 171325Z AUTO 27010KT 230V310 9999 SCT018 BKN021 BKN026 19/15 Q1020 WHT NOSIG
14:55
M
19 °C 10 km+ 1.700 ft 280° 280° 11 kt METAR EHLW 171255Z AUTO 28011KT 220V300 9999 BKN017 OVC020 19/15 Q1020 WHT NOSIG
14:25
M
19 °C 10 km+ 1.800 ft 280° 280° 11 kt METAR EHLW 171225Z AUTO 28011KT 240V320 9999 BKN018 BKN022 OVC140 19/15 Q1020 WHT NOSIG
13:55
M
19 °C 10 km+ 1.700 ft 270° 270° 10 kt METAR EHLW 171155Z AUTO 27010KT 230V310 9999 BKN017 OVC140 19/15 Q1020 WHT NOSIG
13:38
M
19 °C 10 km+ 1.800 ft 270° 270° 10 kt METAR EHLW 171138Z AUTO 27010KT 230V300 9999 BKN018 BKN140 19/15 Q1020 WHT NOSIG
13:26
M
19 °C 10 km+ 1.700 ft 280° 280° 10 kt METAR EHLW 171126Z AUTO 28010KT 230V310 9999 BKN017 19/15 Q1020 WHT BECMG SCT020
13:25
V
19 °C 10 km+ - 270° 270° 10 kt METAR EHLW 171125Z AUTO 27010KT 230V310 9999 SCT017 19/15 Q1020 BLU BECMG SCT020
13:09
V
19 °C 10 km+ - 270° 270° 11 kt METAR EHLW 171109Z AUTO 27011KT 230V350 9999 SCT017 19/15 Q1019 BLU BECMG SCT020
12:55
M
19 °C 10 km+ 1.600 ft 270° 270° 11 kt METAR EHLW 171055Z AUTO 27011KT 220V320 9999 BKN016 19/15 Q1019 WHT BECMG SCT020
12:25
M
18 °C 10 km+ 1.600 ft 260° 260° 11 kt METAR EHLW 171025Z AUTO 26011KT 240V330 9999 BKN016 BKN020 OVC068 18/14 Q1019 WHT BECMG SCT020
11:55
M
18 °C 10 km+ 2.100 ft 270° 270° 11 kt METAR EHLW 170955Z AUTO 27011KT 230V310 9999 SCT017 BKN021 OVC058 18/14 Q1019 WHT BECMG SCT020
11:25
M
17 °C 10 km+ 1.700 ft 280° 280° 10 kt METAR EHLW 170925Z AUTO 28010KT 240V310 9999 BKN017 OVC020 17/14 Q1018 WHT BECMG SCT020
11:09
M
17 °C 10 km+ 2.000 ft 280° 280° 9 kt METAR EHLW 170909Z AUTO 28009KT 240V320 9999 SCT017 OVC020 17/14 Q1018 WHT BECMG SCT020
10:55
M
17 °C 10 km+ 1.800 ft 280° 280° 10 kt METAR EHLW 170855Z AUTO 28010KT 240V330 9999 BKN018 OVC021 17/14 Q1018 WHT TEMPO SCT012 BKN015
10:25
M
17 °C 10 km+ 1.700 ft 280° 280° 11 kt METAR EHLW 170825Z AUTO 28011KT 230V310 9999 SCT014 BKN017 OVC021 17/14 Q1018 WHT TEMPO SCT012 BKN015
10:09
M
17 °C 10 km+ 1.600 ft 280° 280° 9 kt METAR EHLW 170809Z AUTO 28009KT 240V320 9999 SCT014 BKN016 OVC020 17/14 Q1018 WHT TEMPO SCT012 BKN015
09:55
M
17 °C 10 km+ 1.500 ft 290° 290° 9 kt METAR EHLW 170755Z AUTO 29009KT 260V320 9999 SCT013 BKN015 OVC019 17/14 Q1017 WHT TEMPO SCT012 BKN015
09:25
M
16 °C 10 km+ 1.900 ft 280° 280° 9 kt METAR EHLW 170725Z AUTO 28009KT 240V310 9999 SCT013 BKN019 OVC023 16/14 Q1017 WHT TEMPO SCT012 BKN015
09:00
M
16 °C 10 km+ 1.500 ft 280° 280° 8 kt METAR EHLW 170700Z AUTO 28008KT 240V310 9999 SCT011 BKN015 OVC019 16/14 Q1017 WHT TEMPO SCT012 BKN015
08:55
M
16 °C 10 km+ 1.100 ft 280° 280° 8 kt METAR EHLW 170655Z AUTO 28008KT 240V320 9999 -RADZ BKN011 BKN014 OVC017 16/14 Q1017 GRN TEMPO SCT012 BKN015
08:42
M
16 °C 10 km+ 1.400 ft 270° 270° 8 kt METAR EHLW 170642Z AUTO 27008KT 240V310 9999 SCT012 BKN014 BKN016 16/14 Q1017 GRN TEMPO SCT012 BKN015
08:41
M
16 °C 10 km+ 1.500 ft 270° 270° 8 kt METAR EHLW 170641Z AUTO 27008KT 240V310 9999 SCT012 BKN015 BKN018 16/14 Q1017 WHT TEMPO SCT012 BKN015
08:31
M
16 °C 10 km+ 1.400 ft 280° 280° 8 kt METAR EHLW 170631Z AUTO 28008KT 240V320 9999 SCT012 BKN014 BKN017 16/14 Q1016 GRN TEMPO SCT012 BKN015
08:27
M
16 °C 10 km+ 1.900 ft 280° 280° 9 kt METAR EHLW 170627Z AUTO 28009KT 240V320 9999 SCT014 SCT016 BKN019 16/14 Q1016 WHT TEMPO SCT012 BKN015
08:25
V
16 °C 10 km+ 3.300 ft 280° 280° 9 kt METAR EHLW 170625Z AUTO 28009KT 250V310 9999 FEW014 SCT019 OVC033 16/14 Q1016 BLU TEMPO SCT012 BKN015
07:59
M
16 °C 10 km+ 2.600 ft 290° 290° 8 kt METAR EHLW 170559Z AUTO 29008KT 240V320 9999 SCT022 OVC026 16/14 Q1016 BLU TEMPO SCT012 BKN015
07:55
M
16 °C 10 km+ 2.300 ft 290° 290° 9 kt METAR EHLW 170555Z AUTO 29009KT 240V320 9999 FEW014 SCT017 BKN023 16/14 Q1016 WHT TEMPO SCT012 BKN015
Wijziging doorgeven